Terminal Aerodrome Forecast
Issued by NWS Knoxville/Tri Cities, TN

Home | Current Version | Previous Version | Text Only | Print | Product List | Glossary On
Versions: 1 2 3 4 5 6 7 8 9 10 11 12 13 14 15 16 17 18 19 20 21 22 23 24 25 26 27 28 29 30 31 32 33 34 35 36 37
000
FTUS44 KMRX 302357 AAA
TAFTYS
TAF AMD
KTYS 302357Z 3100/3124 16014KT P6SM SCT050 BKN150
     FM310400 21014KT P6SM VCTS SCT040CB BKN080
      TEMPO 3104/3108 VRB15G26KT 4SM -TSRA BR SCT028CB OVC040
     FM310900 23010KT 5SM BR VCSH SCT015 OVC028
     FM311300 24012KT P6SM BKN040
     FM311800 25012G18KT P6SM SCT060 BKN150=

USA.gov is the U.S. government's official web portal to all federal, state and local government web resources and services.